sensor_id;sensor_type;location;lat;lon;timestamp;temperature;humidity
65707;SHT31;52423;43.512;5.220;2022-08-07T00:01:05;27.36;45.03
65707;SHT31;52423;43.512;5.220;2022-08-07T00:03:31;27.12;46.11
65707;SHT31;52423;43.512;5.220;2022-08-07T00:05:57;27.05;45.06
65707;SHT31;52423;43.512;5.220;2022-08-07T00:08:23;27.23;44.95
65707;SHT31;52423;43.512;5.220;2022-08-07T00:10:49;27.13;44.10
65707;SHT31;52423;43.512;5.220;2022-08-07T00:13:16;26.98;46.25
65707;SHT31;52423;43.512;5.220;2022-08-07T00:15:42;26.96;47.91
65707;SHT31;52423;43.512;5.220;2022-08-07T00:18:08;27.18;45.90
65707;SHT31;52423;43.512;5.220;2022-08-07T00:20:35;26.90;46.48
65707;SHT31;52423;43.512;5.220;2022-08-07T00:23:01;26.87;46.80
65707;SHT31;52423;43.512;5.220;2022-08-07T00:25:27;26.61;46.29
65707;SHT31;52423;43.512;5.220;2022-08-07T00:27:53;26.85;47.79
65707;SHT31;52423;43.512;5.220;2022-08-07T00:30:19;26.60;47.37
65707;SHT31;52423;43.512;5.220;2022-08-07T00:32:48;26.36;46.75
65707;SHT31;52423;43.512;5.220;2022-08-07T00:35:16;26.30;48.24
65707;SHT31;52423;43.512;5.220;2022-08-07T00:37:42;26.61;48.00
65707;SHT31;52423;43.512;5.220;2022-08-07T00:40:09;26.61;46.78
65707;SHT31;52423;43.512;5.220;2022-08-07T00:42:35;26.32;48.18
65707;SHT31;52423;43.512;5.220;2022-08-07T00:45:01;26.37;48.31
65707;SHT31;52423;43.512;5.220;2022-08-07T00:47:28;26.48;47.72
65707;SHT31;52423;43.512;5.220;2022-08-07T00:49:53;26.44;48.62
65707;SHT31;52423;43.512;5.220;2022-08-07T00:52:19;26.30;48.15
65707;SHT31;52423;43.512;5.220;2022-08-07T00:54:44;26.16;48.65
65707;SHT31;52423;43.512;5.220;2022-08-07T00:57:11;26.22;48.89
65707;SHT31;52423;43.512;5.220;2022-08-07T00:59:37;26.13;48.87
65707;SHT31;52423;43.512;5.220;2022-08-07T01:02:07;25.97;49.17
65707;SHT31;52423;43.512;5.220;2022-08-07T01:04:33;26.04;48.58
65707;SHT31;52423;43.512;5.220;2022-08-07T01:06:59;26.14;48.37
65707;SHT31;52423;43.512;5.220;2022-08-07T01:09:26;25.92;47.98
65707;SHT31;52423;43.512;5.220;2022-08-07T01:11:52;25.93;48.69
65707;SHT31;52423;43.512;5.220;2022-08-07T01:14:23;26.24;47.94
65707;SHT31;52423;43.512;5.220;2022-08-07T01:16:50;26.24;48.40
65707;SHT31;52423;43.512;5.220;2022-08-07T01:19:17;26.37;46.87
65707;SHT31;52423;43.512;5.220;2022-08-07T01:21:44;26.23;47.86
65707;SHT31;52423;43.512;5.220;2022-08-07T01:24:10;26.34;47.53
65707;SHT31;52423;43.512;5.220;2022-08-07T01:26:36;26.33;48.07
65707;SHT31;52423;43.512;5.220;2022-08-07T01:29:03;26.34;47.34
65707;SHT31;52423;43.512;5.220;2022-08-07T01:31:29;26.33;47.50
65707;SHT31;52423;43.512;5.220;2022-08-07T01:33:58;26.58;46.56
65707;SHT31;52423;43.512;5.220;2022-08-07T01:36:26;26.40;46.71
65707;SHT31;52423;43.512;5.220;2022-08-07T01:38:52;26.29;47.33
65707;SHT31;52423;43.512;5.220;2022-08-07T01:41:19;26.20;47.32
65707;SHT31;52423;43.512;5.220;2022-08-07T01:43:46;25.99;47.82
65707;SHT31;52423;43.512;5.220;2022-08-07T01:46:13;25.93;48.21
65707;SHT31;52423;43.512;5.220;2022-08-07T01:48:43;26.07;48.26
65707;SHT31;52423;43.512;5.220;2022-08-07T01:51:12;26.13;47.71
65707;SHT31;52423;43.512;5.220;2022-08-07T01:53:42;26.19;47.56
65707;SHT31;52423;43.512;5.220;2022-08-07T01:56:13;26.14;47.92
65707;SHT31;52423;43.512;5.220;2022-08-07T01:58:43;26.03;47.60
65707;SHT31;52423;43.512;5.220;2022-08-07T02:01:23;25.92;47.10
65707;SHT31;52423;43.512;5.220;2022-08-07T02:03:58;25.85;47.97
65707;SHT31;52423;43.512;5.220;2022-08-07T02:06:28;25.89;50.21
65707;SHT31;52423;43.512;5.220;2022-08-07T02:08:54;25.63;48.99
65707;SHT31;52423;43.512;5.220;2022-08-07T02:11:21;25.63;47.97
65707;SHT31;52423;43.512;5.220;2022-08-07T02:13:48;25.63;48.53
65707;SHT31;52423;43.512;5.220;2022-08-07T02:16:16;25.71;48.34
65707;SHT31;52423;43.512;5.220;2022-08-07T02:18:43;25.55;48.32
65707;SHT31;52423;43.512;5.220;2022-08-07T02:21:09;25.41;48.97
65707;SHT31;52423;43.512;5.220;2022-08-07T02:23:37;25.34;48.98
65707;SHT31;52423;43.512;5.220;2022-08-07T02:26:05;25.28;49.18
65707;SHT31;52423;43.512;5.220;2022-08-07T02:28:34;25.23;49.65
65707;SHT31;52423;43.512;5.220;2022-08-07T02:31:03;25.08;49.00
65707;SHT31;52423;43.512;5.220;2022-08-07T02:33:31;24.94;49.43
65707;SHT31;52423;43.512;5.220;2022-08-07T02:35:59;24.91;50.05
65707;SHT31;52423;43.512;5.220;2022-08-07T02:38:27;25.00;51.19
65707;SHT31;52423;43.512;5.220;2022-08-07T02:40:54;24.97;49.73
65707;SHT31;52423;43.512;5.220;2022-08-07T02:43:21;24.86;51.11
65707;SHT31;52423;43.512;5.220;2022-08-07T02:45:48;24.91;50.80
65707;SHT31;52423;43.512;5.220;2022-08-07T02:48:14;24.72;50.86
65707;SHT31;52423;43.512;5.220;2022-08-07T02:50:42;24.64;51.21
65707;SHT31;52423;43.512;5.220;2022-08-07T02:53:10;24.76;51.25
65707;SHT31;52423;43.512;5.220;2022-08-07T02:55:41;24.69;50.90
65707;SHT31;52423;43.512;5.220;2022-08-07T02:58:13;24.70;51.40
65707;SHT31;52423;43.512;5.220;2022-08-07T03:00:42;24.70;51.55
65707;SHT31;52423;43.512;5.220;2022-08-07T03:03:10;24.70;50.74
65707;SHT31;52423;43.512;5.220;2022-08-07T03:05:36;24.72;50.87
65707;SHT31;52423;43.512;5.220;2022-08-07T03:08:05;24.70;51.28
65707;SHT31;52423;43.512;5.220;2022-08-07T03:10:35;24.51;51.64
65707;SHT31;52423;43.512;5.220;2022-08-07T03:13:01;24.42;52.14
65707;SHT31;52423;43.512;5.220;2022-08-07T03:15:28;24.49;51.78
65707;SHT31;52423;43.512;5.220;2022-08-07T03:17:54;24.37;51.96
65707;SHT31;52423;43.512;5.220;2022-08-07T03:20:21;24.23;52.32
65707;SHT31;52423;43.512;5.220;2022-08-07T03:22:49;24.21;52.67
65707;SHT31;52423;43.512;5.220;2022-08-07T03:25:15;24.22;52.45
65707;SHT31;52423;43.512;5.220;2022-08-07T03:27:42;24.16;51.84
65707;SHT31;52423;43.512;5.220;2022-08-07T03:30:10;24.26;52.00
65707;SHT31;52423;43.512;5.220;2022-08-07T03:32:41;24.29;51.44
65707;SHT31;52423;43.512;5.220;2022-08-07T03:35:11;24.45;50.85
65707;SHT31;52423;43.512;5.220;2022-08-07T03:37:39;24.43;50.86
65707;SHT31;52423;43.512;5.220;2022-08-07T03:40:06;24.55;51.31
65707;SHT31;52423;43.512;5.220;2022-08-07T03:42:34;24.53;51.01
65707;SHT31;52423;43.512;5.220;2022-08-07T03:45:00;24.62;50.74
65707;SHT31;52423;43.512;5.220;2022-08-07T03:47:27;24.60;50.58
65707;SHT31;52423;43.512;5.220;2022-08-07T03:49:55;24.56;50.67
65707;SHT31;52423;43.512;5.220;2022-08-07T03:52:24;24.52;50.64
65707;SHT31;52423;43.512;5.220;2022-08-07T03:54:49;24.48;50.57
65707;SHT31;52423;43.512;5.220;2022-08-07T03:57:16;24.53;50.50
65707;SHT31;52423;43.512;5.220;2022-08-07T03:59:42;24.57;50.43
65707;SHT31;52423;43.512;5.220;2022-08-07T04:02:08;24.37;51.01
65707;SHT31;52423;43.512;5.220;2022-08-07T04:04:34;24.37;51.02
65707;SHT31;52423;43.512;5.220;2022-08-07T04:06:59;24.37;50.83
65707;SHT31;52423;43.512;5.220;2022-08-07T04:09:27;24.48;50.67
65707;SHT31;52423;43.512;5.220;2022-08-07T04:11:54;24.42;50.79
65707;SHT31;52423;43.512;5.220;2022-08-07T04:14:20;24.39;51.04
65707;SHT31;52423;43.512;5.220;2022-08-07T04:16:47;24.36;50.78
65707;SHT31;52423;43.512;5.220;2022-08-07T04:19:13;24.35;50.94
65707;SHT31;52423;43.512;5.220;2022-08-07T04:21:40;24.40;50.82
65707;SHT31;52423;43.512;5.220;2022-08-07T04:24:06;24.35;51.01
65707;SHT31;52423;43.512;5.220;2022-08-07T04:26:37;24.23;51.92
65707;SHT31;52423;43.512;5.220;2022-08-07T04:29:05;24.22;51.72
65707;SHT31;52423;43.512;5.220;2022-08-07T04:31:31;24.11;52.15
65707;SHT31;52423;43.512;5.220;2022-08-07T04:33:57;23.91;52.85
65707;SHT31;52423;43.512;5.220;2022-08-07T04:36:23;23.89;53.11
65707;SHT31;52423;43.512;5.220;2022-08-07T04:38:49;23.75;52.93
65707;SHT31;52423;43.512;5.220;2022-08-07T04:41:15;23.73;52.76
65707;SHT31;52423;43.512;5.220;2022-08-07T04:43:41;23.63;53.30
65707;SHT31;52423;43.512;5.220;2022-08-07T04:46:14;23.43;53.88
65707;SHT31;52423;43.512;5.220;2022-08-07T04:49:07;23.46;53.75
65707;SHT31;52423;43.512;5.220;2022-08-07T04:51:59;23.40;53.70
65707;SHT31;52423;43.512;5.220;2022-08-07T04:54:31;23.46;54.16
65707;SHT31;52423;43.512;5.220;2022-08-07T04:57:08;23.34;54.38
65707;SHT31;52423;43.512;5.220;2022-08-07T05:02:30;23.65;53.66
65707;SHT31;52423;43.512;5.220;2022-08-07T05:10:38;23.53;54.48
65707;SHT31;52423;43.512;5.220;2022-08-07T05:13:17;23.55;54.68
65707;SHT31;52423;43.512;5.220;2022-08-07T05:15:48;23.60;54.36
65707;SHT31;52423;43.512;5.220;2022-08-07T05:18:19;23.68;54.23
65707;SHT31;52423;43.512;5.220;2022-08-07T05:20:52;23.50;54.72
65707;SHT31;52423;43.512;5.220;2022-08-07T05:23:25;23.40;55.27
65707;SHT31;52423;43.512;5.220;2022-08-07T05:25:52;23.36;55.94
65707;SHT31;52423;43.512;5.220;2022-08-07T05:28:19;23.44;54.91
65707;SHT31;52423;43.512;5.220;2022-08-07T05:30:46;23.65;54.04
65707;SHT31;52423;43.512;5.220;2022-08-07T05:33:13;23.67;53.53
65707;SHT31;52423;43.512;5.220;2022-08-07T05:35:40;23.85;53.79
65707;SHT31;52423;43.512;5.220;2022-08-07T05:38:07;23.95;53.16
65707;SHT31;52423;43.512;5.220;2022-08-07T05:40:35;24.04;53.20
65707;SHT31;52423;43.512;5.220;2022-08-07T05:43:01;23.95;52.96
65707;SHT31;52423;43.512;5.220;2022-08-07T05:45:27;24.02;53.15
65707;SHT31;52423;43.512;5.220;2022-08-07T05:47:55;24.18;52.92
65707;SHT31;52423;43.512;5.220;2022-08-07T05:50:22;24.48;51.59
65707;SHT31;52423;43.512;5.220;2022-08-07T05:52:48;24.53;51.67
65707;SHT31;52423;43.512;5.220;2022-08-07T05:55:14;24.73;51.38
65707;SHT31;52423;43.512;5.220;2022-08-07T05:57:40;24.72;51.21
65707;SHT31;52423;43.512;5.220;2022-08-07T06:00:07;24.82;50.74
65707;SHT31;52423;43.512;5.220;2022-08-07T06:02:35;24.77;50.74
65707;SHT31;52423;43.512;5.220;2022-08-07T06:05:07;24.73;50.79
65707;SHT31;52423;43.512;5.220;2022-08-07T06:07:34;24.76;50.69
65707;SHT31;52423;43.512;5.220;2022-08-07T06:10:01;24.83;50.76
65707;SHT31;52423;43.512;5.220;2022-08-07T06:12:27;24.94;50.27
65707;SHT31;52423;43.512;5.220;2022-08-07T06:14:54;25.03;50.09
65707;SHT31;52423;43.512;5.220;2022-08-07T06:17:20;25.06;49.92
65707;SHT31;52423;43.512;5.220;2022-08-07T06:19:46;25.20;49.62
65707;SHT31;52423;43.512;5.220;2022-08-07T06:22:13;25.25;48.88
65707;SHT31;52423;43.512;5.220;2022-08-07T06:24:39;25.27;49.34
65707;SHT31;52423;43.512;5.220;2022-08-07T06:27:05;25.30;49.41
65707;SHT31;52423;43.512;5.220;2022-08-07T06:29:30;25.32;49.12
65707;SHT31;52423;43.512;5.220;2022-08-07T06:31:56;25.38;49.34
65707;SHT31;52423;43.512;5.220;2022-08-07T06:34:23;25.38;49.31
65707;SHT31;52423;43.512;5.220;2022-08-07T06:36:50;25.49;49.19
65707;SHT31;52423;43.512;5.220;2022-08-07T06:39:15;25.46;48.86
65707;SHT31;52423;43.512;5.220;2022-08-07T06:41:45;25.63;48.66
65707;SHT31;52423;43.512;5.220;2022-08-07T06:44:13;25.69;48.76
65707;SHT31;52423;43.512;5.220;2022-08-07T06:46:39;25.81;47.92
65707;SHT31;52423;43.512;5.220;2022-08-07T06:49:06;25.72;48.32
65707;SHT31;52423;43.512;5.220;2022-08-07T06:51:33;25.82;48.41
65707;SHT31;52423;43.512;5.220;2022-08-07T06:54:00;25.92;48.19
65707;SHT31;52423;43.512;5.220;2022-08-07T06:56:30;25.96;47.65
65707;SHT31;52423;43.512;5.220;2022-08-07T06:59:19;26.04;47.29
65707;SHT31;52423;43.512;5.220;2022-08-07T07:01:47;26.14;47.74
65707;SHT31;52423;43.512;5.220;2022-08-07T07:04:14;26.26;47.25
65707;SHT31;52423;43.512;5.220;2022-08-07T07:06:40;26.32;47.11
65707;SHT31;52423;43.512;5.220;2022-08-07T07:09:32;26.44;47.32
65707;SHT31;52423;43.512;5.220;2022-08-07T07:17:07;26.60;47.21
65707;SHT31;52423;43.512;5.220;2022-08-07T07:19:39;26.71;46.47
65707;SHT31;52423;43.512;5.220;2022-08-07T07:22:08;26.81;46.26
65707;SHT31;52423;43.512;5.220;2022-08-07T07:24:34;26.94;45.97
65707;SHT31;52423;43.512;5.220;2022-08-07T07:27:02;27.04;45.67
65707;SHT31;52423;43.512;5.220;2022-08-07T07:29:33;27.01;45.55
65707;SHT31;52423;43.512;5.220;2022-08-07T07:32:02;27.36;45.19
65707;SHT31;52423;43.512;5.220;2022-08-07T07:34:32;27.26;45.38
65707;SHT31;52423;43.512;5.220;2022-08-07T07:37:01;27.41;45.44
65707;SHT31;52423;43.512;5.220;2022-08-07T07:39:28;27.53;45.15
65707;SHT31;52423;43.512;5.220;2022-08-07T07:41:56;27.66;44.64
65707;SHT31;52423;43.512;5.220;2022-08-07T07:44:23;27.66;44.68
65707;SHT31;52423;43.512;5.220;2022-08-07T07:46:50;27.67;44.22
65707;SHT31;52423;43.512;5.220;2022-08-07T07:49:18;27.62;44.79
65707;SHT31;52423;43.512;5.220;2022-08-07T07:51:46;27.69;44.94
65707;SHT31;52423;43.512;5.220;2022-08-07T07:54:13;27.80;44.39
65707;SHT31;52423;43.512;5.220;2022-08-07T07:56:41;28.37;43.40
65707;SHT31;52423;43.512;5.220;2022-08-07T07:59:08;28.32;43.29
65707;SHT31;52423;43.512;5.220;2022-08-07T08:01:37;28.35;43.65
65707;SHT31;52423;43.512;5.220;2022-08-07T08:04:05;28.45;42.87
65707;SHT31;52423;43.512;5.220;2022-08-07T08:06:33;28.45;43.38
65707;SHT31;52423;43.512;5.220;2022-08-07T08:09:01;28.52;42.68
65707;SHT31;52423;43.512;5.220;2022-08-07T08:11:28;28.76;42.84
65707;SHT31;52423;43.512;5.220;2022-08-07T08:13:54;28.73;42.60
65707;SHT31;52423;43.512;5.220;2022-08-07T08:16:21;28.59;42.90
65707;SHT31;52423;43.512;5.220;2022-08-07T08:18:50;28.89;42.70
65707;SHT31;52423;43.512;5.220;2022-08-07T08:21:19;29.06;42.03
65707;SHT31;52423;43.512;5.220;2022-08-07T08:24:04;29.24;41.87
65707;SHT31;52423;43.512;5.220;2022-08-07T08:26:51;29.43;41.37
65707;SHT31;52423;43.512;5.220;2022-08-07T08:29:38;29.65;40.35
65707;SHT31;52423;43.512;5.220;2022-08-07T08:32:05;29.68;40.65
65707;SHT31;52423;43.512;5.220;2022-08-07T08:34:32;29.61;40.45
65707;SHT31;52423;43.512;5.220;2022-08-07T08:37:01;30.12;39.87
65707;SHT31;52423;43.512;5.220;2022-08-07T08:39:27;30.31;39.03
65707;SHT31;52423;43.512;5.220;2022-08-07T08:42:44;30.46;38.89
65707;SHT31;52423;43.512;5.220;2022-08-07T08:45:10;30.49;38.82
65707;SHT31;52423;43.512;5.220;2022-08-07T08:50:47;30.39;39.69
65707;SHT31;52423;43.512;5.220;2022-08-07T08:53:32;30.13;40.05
65707;SHT31;52423;43.512;5.220;2022-08-07T08:56:10;30.13;40.10
65707;SHT31;52423;43.512;5.220;2022-08-07T08:58:52;29.97;42.72
65707;SHT31;52423;43.512;5.220;2022-08-07T09:01:32;30.01;43.33
65707;SHT31;52423;43.512;5.220;2022-08-07T09:06:51;29.88;43.49
65707;SHT31;52423;43.512;5.220;2022-08-07T09:09:33;30.08;44.00
65707;SHT31;52423;43.512;5.220;2022-08-07T09:12:12;30.21;42.45
65707;SHT31;52423;43.512;5.220;2022-08-07T09:15:09;30.15;42.41
65707;SHT31;52423;43.512;5.220;2022-08-07T09:18:49;30.23;42.39
65707;SHT31;52423;43.512;5.220;2022-08-07T09:26:48;30.73;39.66
65707;SHT31;52423;43.512;5.220;2022-08-07T09:37:53;31.04;38.26
65707;SHT31;52423;43.512;5.220;2022-08-07T09:40:28;30.94;38.65
65707;SHT31;52423;43.512;5.220;2022-08-07T09:43:27;31.21;37.89
65707;SHT31;52423;43.512;5.220;2022-08-07T09:53:33;31.27;37.84
65707;SHT31;52423;43.512;5.220;2022-08-07T09:56:25;31.25;37.91
65707;SHT31;52423;43.512;5.220;2022-08-07T10:10:02;31.68;39.79
65707;SHT31;52423;43.512;5.220;2022-08-07T10:24:12;32.20;40.55
65707;SHT31;52423;43.512;5.220;2022-08-07T10:33:13;32.43;37.57
65707;SHT31;52423;43.512;5.220;2022-08-07T10:41:32;32.50;37.44
65707;SHT31;52423;43.512;5.220;2022-08-07T10:44:11;32.36;36.89
65707;SHT31;52423;43.512;5.220;2022-08-07T10:46:53;33.05;34.79
65707;SHT31;52423;43.512;5.220;2022-08-07T10:49:34;32.74;35.44
65707;SHT31;52423;43.512;5.220;2022-08-07T10:52:11;33.01;34.88
65707;SHT31;52423;43.512;5.220;2022-08-07T10:54:44;33.65;34.55
65707;SHT31;52423;43.512;5.220;2022-08-07T10:57:21;33.85;33.72
65707;SHT31;52423;43.512;5.220;2022-08-07T11:00:08;33.15;34.14
65707;SHT31;52423;43.512;5.220;2022-08-07T11:02:49;33.65;34.08
65707;SHT31;52423;43.512;5.220;2022-08-07T11:08:15;33.36;33.68
65707;SHT31;52423;43.512;5.220;2022-08-07T11:15:49;33.52;33.65
65707;SHT31;52423;43.512;5.220;2022-08-07T11:18:24;33.79;34.32
65707;SHT31;52423;43.512;5.220;2022-08-07T11:21:49;33.49;33.43
65707;SHT31;52423;43.512;5.220;2022-08-07T11:24:24;33.41;33.73
65707;SHT31;52423;43.512;5.220;2022-08-07T11:26:56;33.38;34.03
65707;SHT31;52423;43.512;5.220;2022-08-07T11:30:23;33.55;33.52
65707;SHT31;52423;43.512;5.220;2022-08-07T11:35:53;33.60;33.19
65707;SHT31;52423;43.512;5.220;2022-08-07T11:38:26;33.81;33.06
65707;SHT31;52423;43.512;5.220;2022-08-07T11:40:56;33.59;32.89
65707;SHT31;52423;43.512;5.220;2022-08-07T11:43:29;33.73;32.90
65707;SHT31;52423;43.512;5.220;2022-08-07T11:51:59;33.96;31.88
65707;SHT31;52423;43.512;5.220;2022-08-07T11:54:50;33.77;31.61
65707;SHT31;52423;43.512;5.220;2022-08-07T11:57:21;34.13;31.37
65707;SHT31;52423;43.512;5.220;2022-08-07T12:00:13;34.06;30.99
65707;SHT31;52423;43.512;5.220;2022-08-07T12:08:24;33.81;31.38
65707;SHT31;52423;43.512;5.220;2022-08-07T12:10:55;33.81;30.54
65707;SHT31;52423;43.512;5.220;2022-08-07T12:13:23;33.83;30.81
65707;SHT31;52423;43.512;5.220;2022-08-07T12:15:58;33.79;30.33
65707;SHT31;52423;43.512;5.220;2022-08-07T12:18:40;33.73;31.09
65707;SHT31;52423;43.512;5.220;2022-08-07T12:21:23;33.85;30.51
65707;SHT31;52423;43.512;5.220;2022-08-07T12:23:57;34.23;29.97
65707;SHT31;52423;43.512;5.220;2022-08-07T12:26:43;34.18;30.48
65707;SHT31;52423;43.512;5.220;2022-08-07T12:32:28;33.79;34.62
65707;SHT31;52423;43.512;5.220;2022-08-07T12:34:55;33.99;33.27
65707;SHT31;52423;43.512;5.220;2022-08-07T12:37:24;33.50;33.66
65707;SHT31;52423;43.512;5.220;2022-08-07T12:39:52;33.66;34.98
65707;SHT31;52423;43.512;5.220;2022-08-07T12:42:25;33.72;33.28
65707;SHT31;52423;43.512;5.220;2022-08-07T12:44:51;33.48;34.32
65707;SHT31;52423;43.512;5.220;2022-08-07T12:50:21;33.77;34.76
65707;SHT31;52423;43.512;5.220;2022-08-07T12:52:58;33.80;35.77
65707;SHT31;52423;43.512;5.220;2022-08-07T12:55:38;33.81;36.02
65707;SHT31;52423;43.512;5.220;2022-08-07T12:58:06;33.88;35.22
65707;SHT31;52423;43.512;5.220;2022-08-07T13:00:51;34.09;35.51
65707;SHT31;52423;43.512;5.220;2022-08-07T13:03:29;33.80;35.02
65707;SHT31;52423;43.512;5.220;2022-08-07T13:08:34;33.93;36.02
65707;SHT31;52423;43.512;5.220;2022-08-07T13:16:46;33.79;39.24
65707;SHT31;52423;43.512;5.220;2022-08-07T13:19:29;33.70;37.08
65707;SHT31;52423;43.512;5.220;2022-08-07T13:27:15;34.69;26.76
65707;SHT31;52423;43.512;5.220;2022-08-07T13:30:02;34.91;23.82
65707;SHT31;52423;43.512;5.220;2022-08-07T13:32:47;34.92;23.97
65707;SHT31;52423;43.512;5.220;2022-08-07T13:35:21;35.06;22.48
65707;SHT31;52423;43.512;5.220;2022-08-07T13:38:22;35.06;22.58
65707;SHT31;52423;43.512;5.220;2022-08-07T13:43:47;35.09;22.25
65707;SHT31;52423;43.512;5.220;2022-08-07T13:46:15;35.02;22.14
65707;SHT31;52423;43.512;5.220;2022-08-07T13:48:48;34.99;22.91
65707;SHT31;52423;43.512;5.220;2022-08-07T13:51:15;34.95;22.07
65707;SHT31;52423;43.512;5.220;2022-08-07T13:53:50;35.12;22.06
65707;SHT31;52423;43.512;5.220;2022-08-07T13:56:19;35.02;22.55
65707;SHT31;52423;43.512;5.220;2022-08-07T13:58:47;35.03;23.07
65707;SHT31;52423;43.512;5.220;2022-08-07T14:01:36;35.10;22.67
65707;SHT31;52423;43.512;5.220;2022-08-07T14:04:13;34.99;23.05
65707;SHT31;52423;43.512;5.220;2022-08-07T14:06:43;34.61;23.71
65707;SHT31;52423;43.512;5.220;2022-08-07T14:09:15;34.81;23.70
65707;SHT31;52423;43.512;5.220;2022-08-07T14:11:45;34.82;23.99
65707;SHT31;52423;43.512;5.220;2022-08-07T14:14:14;34.71;23.26
65707;SHT31;52423;43.512;5.220;2022-08-07T14:16:45;34.87;23.11
65707;SHT31;52423;43.512;5.220;2022-08-07T14:19:22;34.65;23.29
65707;SHT31;52423;43.512;5.220;2022-08-07T14:21:53;34.51;23.38
65707;SHT31;52423;43.512;5.220;2022-08-07T14:24:28;34.54;23.83
65707;SHT31;52423;43.512;5.220;2022-08-07T14:27:02;34.72;22.62
65707;SHT31;52423;43.512;5.220;2022-08-07T14:29:35;34.75;23.42
65707;SHT31;52423;43.512;5.220;2022-08-07T14:32:03;34.55;23.66
65707;SHT31;52423;43.512;5.220;2022-08-07T14:34:32;34.07;23.85
65707;SHT31;52423;43.512;5.220;2022-08-07T14:37:00;34.41;23.58
65707;SHT31;52423;43.512;5.220;2022-08-07T14:39:27;34.11;24.14
65707;SHT31;52423;43.512;5.220;2022-08-07T14:41:54;34.07;24.60
65707;SHT31;52423;43.512;5.220;2022-08-07T14:44:21;34.09;24.33
65707;SHT31;52423;43.512;5.220;2022-08-07T14:46:49;34.09;24.24
65707;SHT31;52423;43.512;5.220;2022-08-07T14:49:23;34.45;23.70
65707;SHT31;52423;43.512;5.220;2022-08-07T14:51:55;34.61;23.55
65707;SHT31;52423;43.512;5.220;2022-08-07T14:54:22;34.74;22.80
65707;SHT31;52423;43.512;5.220;2022-08-07T14:56:49;34.71;22.97
65707;SHT31;52423;43.512;5.220;2022-08-07T14:59:20;34.75;22.54
65707;SHT31;52423;43.512;5.220;2022-08-07T15:01:46;34.78;21.95
65707;SHT31;52423;43.512;5.220;2022-08-07T15:04:12;34.61;22.16
65707;SHT31;52423;43.512;5.220;2022-08-07T15:06:39;34.50;22.59
65707;SHT31;52423;43.512;5.220;2022-08-07T15:09:09;34.38;22.99
65707;SHT31;52423;43.512;5.220;2022-08-07T15:11:43;34.36;23.19
65707;SHT31;52423;43.512;5.220;2022-08-07T15:14:22;34.45;21.74
65707;SHT31;52423;43.512;5.220;2022-08-07T15:16:53;34.30;22.47
65707;SHT31;52423;43.512;5.220;2022-08-07T15:19:28;34.51;21.64
65707;SHT31;52423;43.512;5.220;2022-08-07T15:22:02;34.64;21.95
65707;SHT31;52423;43.512;5.220;2022-08-07T15:24:39;34.33;22.35
65707;SHT31;52423;43.512;5.220;2022-08-07T15:29:39;34.31;23.08
65707;SHT31;52423;43.512;5.220;2022-08-07T15:32:05;34.48;22.49
65707;SHT31;52423;43.512;5.220;2022-08-07T15:34:52;34.52;22.46
65707;SHT31;52423;43.512;5.220;2022-08-07T15:37:31;34.68;21.42
65707;SHT31;52423;43.512;5.220;2022-08-07T15:40:02;34.72;22.43
65707;SHT31;52423;43.512;5.220;2022-08-07T15:45:24;34.44;22.64
65707;SHT31;52423;43.512;5.220;2022-08-07T15:48:01;34.54;22.95
65707;SHT31;52423;43.512;5.220;2022-08-07T15:50:30;34.58;21.26
65707;SHT31;52423;43.512;5.220;2022-08-07T15:52:59;34.54;21.84
65707;SHT31;52423;43.512;5.220;2022-08-07T15:55:27;34.57;21.19
65707;SHT31;52423;43.512;5.220;2022-08-07T15:57:55;34.45;21.82
65707;SHT31;52423;43.512;5.220;2022-08-07T16:00:22;34.33;22.21
65707;SHT31;52423;43.512;5.220;2022-08-07T16:02:53;34.52;21.72
65707;SHT31;52423;43.512;5.220;2022-08-07T16:05:21;34.51;21.77
65707;SHT31;52423;43.512;5.220;2022-08-07T16:07:52;34.47;21.69
65707;SHT31;52423;43.512;5.220;2022-08-07T16:10:21;34.24;22.27
65707;SHT31;52423;43.512;5.220;2022-08-07T16:18:04;34.00;25.90
65707;SHT31;52423;43.512;5.220;2022-08-07T16:20:58;33.80;34.12
65707;SHT31;52423;43.512;5.220;2022-08-07T16:31:43;32.54;35.96
65707;SHT31;52423;43.512;5.220;2022-08-07T16:34:48;32.36;35.40
65707;SHT31;52423;43.512;5.220;2022-08-07T16:37:21;32.30;36.20
65707;SHT31;52423;43.512;5.220;2022-08-07T16:49:06;32.02;37.55
65707;SHT31;52423;43.512;5.220;2022-08-07T17:04:11;31.44;38.72
65707;SHT31;52423;43.512;5.220;2022-08-07T17:07:01;31.30;39.02
65707;SHT31;52423;43.512;5.220;2022-08-07T17:10:02;31.21;38.95
65707;SHT31;52423;43.512;5.220;2022-08-07T17:12:43;31.11;38.79
65707;SHT31;52423;43.512;5.220;2022-08-07T17:20:34;30.81;41.29
65707;SHT31;52423;43.512;5.220;2022-08-07T17:23:31;30.74;42.14
65707;SHT31;52423;43.512;5.220;2022-08-07T17:26:06;30.70;42.51
65707;SHT31;52423;43.512;5.220;2022-08-07T17:31:12;30.79;43.93
65707;SHT31;52423;43.512;5.220;2022-08-07T17:33:49;30.64;44.09
65707;SHT31;52423;43.512;5.220;2022-08-07T17:36:26;30.60;44.92
65707;SHT31;52423;43.512;5.220;2022-08-07T17:39:05;30.52;46.00
65707;SHT31;52423;43.512;5.220;2022-08-07T17:44:34;30.46;46.39
65707;SHT31;52423;43.512;5.220;2022-08-07T17:47:15;30.46;45.77
65707;SHT31;52423;43.512;5.220;2022-08-07T17:49:53;30.47;45.28
65707;SHT31;52423;43.512;5.220;2022-08-07T17:52:30;30.40;45.63
65707;SHT31;52423;43.512;5.220;2022-08-07T17:55:11;30.46;44.96
65707;SHT31;52423;43.512;5.220;2022-08-07T18:00:12;30.42;41.94
65707;SHT31;52423;43.512;5.220;2022-08-07T18:02:43;30.32;41.54
65707;SHT31;52423;43.512;5.220;2022-08-07T18:08:19;30.16;41.61
65707;SHT31;52423;43.512;5.220;2022-08-07T18:10:55;30.28;41.33
65707;SHT31;52423;43.512;5.220;2022-08-07T18:13:47;30.16;41.83
65707;SHT31;52423;43.512;5.220;2022-08-07T18:16:18;30.06;42.12
65707;SHT31;52423;43.512;5.220;2022-08-07T18:18:56;30.05;42.26
65707;SHT31;52423;43.512;5.220;2022-08-07T18:21:29;30.00;42.43
65707;SHT31;52423;43.512;5.220;2022-08-07T18:24:26;30.04;42.51
65707;SHT31;52423;43.512;5.220;2022-08-07T18:30:08;29.89;43.32
65707;SHT31;52423;43.512;5.220;2022-08-07T18:35:41;29.89;43.87
65707;SHT31;52423;43.512;5.220;2022-08-07T18:46:19;29.67;45.31
65707;SHT31;52423;43.512;5.220;2022-08-07T18:49:02;29.58;45.11
65707;SHT31;52423;43.512;5.220;2022-08-07T19:02:43;29.44;44.55
65707;SHT31;52423;43.512;5.220;2022-08-07T19:05:26;29.47;44.17
65707;SHT31;52423;43.512;5.220;2022-08-07T19:07:54;29.35;44.10
65707;SHT31;52423;43.512;5.220;2022-08-07T19:10:28;29.30;43.60
65707;SHT31;52423;43.512;5.220;2022-08-07T19:16:03;29.23;42.97
65707;SHT31;52423;43.512;5.220;2022-08-07T19:18:47;29.24;42.86
65707;SHT31;52423;43.512;5.220;2022-08-07T19:23:54;29.19;42.62
65707;SHT31;52423;43.512;5.220;2022-08-07T19:26:25;29.10;43.01
65707;SHT31;52423;43.512;5.220;2022-08-07T19:29:04;29.07;43.24